Time;durP1;ratioP1;P1;durP2;ratioP2;P2;SDS_P1;SDS_P2;PMS_P1;PMS_P2;Temp;Humidity;BMP_temperature;BMP_pressure;BME280_temperature;BME280_humidity;BME280_pressure;Samples;Min_cycle;Max_cycle;Signal;HPM_P1;HPM_P2
2021/05/23 00:01:39;;;;;;;1.23;0.80;;;;;;;;;;5052405;28;20031;-79
2021/05/23 00:04:06;;;;;;;0.68;0.40;;;;;;;;;;5069221;28;20025;-79
2021/05/23 00:06:32;;;;;;;0.70;0.70;;;;;;;;;;5066788;28;20036;-79
2021/05/23 00:08:58;;;;;;;0.70;0.57;;;;;;;;;;5065686;28;20025;-80
2021/05/23 00:11:24;;;;;;;1.42;0.60;;;;;;;;;;5065124;28;20048;-79
2021/05/23 00:13:50;;;;;;;1.80;0.70;;;;;;;;;;5064471;28;20502;-79
2021/05/23 00:16:23;;;;;;;1.08;0.40;;;;;;;;;;5064206;28;20482;-79
2021/05/23 00:18:51;;;;;;;1.02;0.55;;;;;;;;;;5066494;28;20009;-79
2021/05/23 00:21:18;;;;;;;2.70;0.85;;;;;;;;;;5074494;28;20025;-79
2021/05/23 00:23:44;;;;;;;2.13;0.55;;;;;;;;;;5068997;28;20061;-80
2021/05/23 00:26:11;;;;;;;1.92;0.70;;;;;;;;;;5064740;28;20041;-78
2021/05/23 00:28:38;;;;;;;0.57;0.45;;;;;;;;;;5074655;28;20041;-79
2021/05/23 00:31:05;;;;;;;2.22;0.75;;;;;;;;;;5067415;28;20060;-80
2021/05/23 00:33:31;;;;;;;1.10;0.50;;;;;;;;;;5064773;28;20033;-79
2021/05/23 00:35:57;;;;;;;1.55;0.77;;;;;;;;;;5063367;28;20078;-80
2021/05/23 00:38:23;;;;;;;5.22;0.80;;;;;;;;;;5068115;28;20024;-79
2021/05/23 00:40:49;;;;;;;1.15;0.77;;;;;;;;;;5069798;28;20089;-79
2021/05/23 00:43:17;;;;;;;2.25;0.90;;;;;;;;;;5038007;28;20026;-79
2021/05/23 00:45:45;;;;;;;1.08;0.77;;;;;;;;;;5039338;28;20028;-80
2021/05/23 00:48:11;;;;;;;1.15;0.70;;;;;;;;;;5037942;28;20026;-79
2021/05/23 00:50:37;;;;;;;0.98;0.70;;;;;;;;;;5038525;28;20021;-80
2021/05/23 00:53:04;;;;;;;1.63;0.60;;;;;;;;;;5058766;28;20029;-80
2021/05/23 00:55:30;;;;;;;0.38;0.38;;;;;;;;;;5045786;28;20022;-80
2021/05/23 00:57:57;;;;;;;1.00;0.50;;;;;;;;;;5059907;28;20029;-79
2021/05/23 01:00:42;;;;;;;1.50;0.88;;;;;;;;;;5060791;28;20021;-80
2021/05/23 01:03:31;;;;;;;0.75;0.50;;;;;;;;;;5051831;28;20071;-79
2021/05/23 01:06:05;;;;;;;0.57;0.55;;;;;;;;;;5041535;28;20033;-78
2021/05/23 01:08:31;;;;;;;1.10;0.52;;;;;;;;;;5042063;28;20037;-78
2021/05/23 01:11:03;;;;;;;1.55;0.38;;;;;;;;;;5042418;28;20470;-79
2021/05/23 01:13:36;;;;;;;0.63;0.40;;;;;;;;;;5041968;28;20041;-78
2021/05/23 01:16:08;;;;;;;1.27;0.52;;;;;;;;;;5041180;28;20040;-79
2021/05/23 01:18:34;;;;;;;;;;;;;;;;;;5043596;28;20037;-78
2021/05/23 01:21:01;;;;;;;1.77;0.70;;;;;;;;;;5043481;28;19920;-78
2021/05/23 01:23:40;;;;;;;0.50;0.50;;;;;;;;;;5054423;28;20494;-80
2021/05/23 01:26:09;;;;;;;1.58;0.63;;;;;;;;;;5049467;28;20488;-78
2021/05/23 01:28:38;;;;;;;1.80;0.65;;;;;;;;;;5042536;28;20032;-78
2021/05/23 01:31:06;;;;;;;1.98;0.40;;;;;;;;;;5042754;28;20094;-79
2021/05/23 01:33:32;;;;;;;0.80;0.70;;;;;;;;;;5077533;22;20028;-79
2021/05/23 01:35:59;;;;;;;0.63;0.57;;;;;;;;;;5054419;28;20039;-80
2021/05/23 01:38:26;;;;;;;0.50;0.50;;;;;;;;;;5042756;28;20033;-79
2021/05/23 01:40:54;;;;;;;1.65;0.60;;;;;;;;;;5041273;28;20053;-78
2021/05/23 01:43:20;;;;;;;0.80;0.50;;;;;;;;;;5046906;28;20033;-80
2021/05/23 01:45:47;;;;;;;1.70;0.63;;;;;;;;;;5061180;28;20029;-80
2021/05/23 01:48:13;;;;;;;1.88;0.82;;;;;;;;;;5062489;28;20029;-78
2021/05/23 01:50:39;;;;;;;1.55;0.60;;;;;;;;;;5060752;28;20388;-79
2021/05/23 01:53:05;;;;;;;1.55;0.52;;;;;;;;;;5045240;28;20084;-79
2021/05/23 01:55:32;;;;;;;0.57;0.57;;;;;;;;;;5042900;28;20039;-80
2021/05/23 01:57:59;;;;;;;1.67;0.40;;;;;;;;;;5042118;28;20033;-79
2021/05/23 02:00:45;;;;;;;0.73;0.55;;;;;;;;;;5042329;28;20041;-78
2021/05/23 02:03:12;;;;;;;0.30;0.30;;;;;;;;;;5043799;28;20081;-79
2021/05/23 02:05:43;;;;;;;0.93;0.47;;;;;;;;;;5044669;28;20029;-79
2021/05/23 02:08:09;;;;;;;0.73;0.60;;;;;;;;;;5044117;28;20072;-80
2021/05/23 02:10:36;;;;;;;1.50;0.70;;;;;;;;;;5042566;28;20029;-77
2021/05/23 02:13:03;;;;;;;0.47;0.47;;;;;;;;;;5053404;28;20115;-81
2021/05/23 02:15:29;;;;;;;1.30;0.50;;;;;;;;;;5062203;28;20029;-81
2021/05/23 02:17:55;;;;;;;1.85;0.60;;;;;;;;;;5064207;28;20116;-79
2021/05/23 02:20:23;;;;;;;0.82;0.70;;;;;;;;;;5064624;28;20047;-80
2021/05/23 02:22:49;;;;;;;3.75;0.60;;;;;;;;;;5042314;28;20108;-78
2021/05/23 02:25:17;;;;;;;1.40;0.98;;;;;;;;;;5042270;28;20110;-79
2021/05/23 02:27:44;;;;;;;1.35;0.70;;;;;;;;;;5042369;28;20025;-78
2021/05/23 02:30:12;;;;;;;0.75;0.75;;;;;;;;;;5044803;28;20025;-79
2021/05/23 02:32:39;;;;;;;0.82;0.52;;;;;;;;;;5042090;28;20094;-78
2021/05/23 02:35:05;;;;;;;1.55;0.50;;;;;;;;;;5045257;28;20025;-78
2021/05/23 02:37:31;;;;;;;2.72;0.80;;;;;;;;;;5043387;28;20021;-79
2021/05/23 02:39:57;;;;;;;1.42;0.70;;;;;;;;;;5051609;28;20113;-79
2021/05/23 02:42:24;;;;;;;1.77;0.85;;;;;;;;;;5061740;28;20025;-78
2021/05/23 02:44:50;;;;;;;0.73;0.43;;;;;;;;;;5059465;28;20059;-78
2021/05/23 02:47:16;;;;;;;2.92;0.68;;;;;;;;;;5062384;28;20029;-79
2021/05/23 02:49:43;;;;;;;2.22;0.52;;;;;;;;;;5057590;28;20029;-78
2021/05/23 02:52:11;;;;;;;0.65;0.52;;;;;;;;;;5042107;28;20026;-79
2021/05/23 02:54:37;;;;;;;3.17;1.40;;;;;;;;;;5040319;28;20025;-78
2021/05/23 02:57:04;;;;;;;1.20;0.70;;;;;;;;;;5039268;28;20021;-79
2021/05/23 02:59:30;;;;;;;1.00;0.50;;;;;;;;;;5042168;28;20021;-80
2021/05/23 03:01:56;;;;;;;1.55;0.65;;;;;;;;;;5040254;28;20033;-80
2021/05/23 03:04:22;;;;;;;3.85;0.70;;;;;;;;;;5041298;28;20095;-80
2021/05/23 03:06:48;;;;;;;1.75;0.75;;;;;;;;;;5041883;28;20033;-79
2021/05/23 03:09:15;;;;;;;1.90;0.88;;;;;;;;;;5053869;28;20029;-78
2021/05/23 03:11:41;;;;;;;3.22;0.60;;;;;;;;;;5059154;28;20031;-79
2021/05/23 03:14:07;;;;;;;3.95;0.82;;;;;;;;;;5061011;28;20028;-79
2021/05/23 03:16:33;;;;;;;1.98;0.70;;;;;;;;;;5062335;28;20032;-76
2021/05/23 03:19:00;;;;;;;1.42;0.73;;;;;;;;;;5043720;28;20170;-78
2021/05/23 03:21:26;;;;;;;2.63;0.88;;;;;;;;;;5041273;28;20032;-78
2021/05/23 03:23:52;;;;;;;2.45;1.10;;;;;;;;;;5043340;28;20029;-77
2021/05/23 03:26:18;;;;;;;3.67;0.90;;;;;;;;;;5040776;28;20025;-77
2021/05/23 03:28:44;;;;;;;2.78;1.08;;;;;;;;;;5038556;28;20116;-78
2021/05/23 03:31:10;;;;;;;1.45;0.73;;;;;;;;;;5040505;28;20028;-79
2021/05/23 03:33:36;;;;;;;2.13;1.02;;;;;;;;;;5041372;28;20049;-77
2021/05/23 03:36:03;;;;;;;2.83;0.88;;;;;;;;;;5045805;28;20025;-79
2021/05/23 03:38:29;;;;;;;3.80;1.10;;;;;;;;;;5051915;28;20032;-79
2021/05/23 03:40:55;;;;;;;0.60;0.55;;;;;;;;;;5041893;28;20037;-79
2021/05/23 03:43:21;;;;;;;2.33;0.80;;;;;;;;;;5059282;28;20025;-78
2021/05/23 03:45:47;;;;;;;1.38;0.70;;;;;;;;;;5056255;28;20029;-78
2021/05/23 03:48:13;;;;;;;1.55;0.70;;;;;;;;;;5040853;28;20033;-79
2021/05/23 03:50:39;;;;;;;2.50;0.80;;;;;;;;;;5040377;28;20397;-78
2021/05/23 03:53:06;;;;;;;1.25;0.80;;;;;;;;;;5038723;28;20033;-80
2021/05/23 03:55:32;;;;;;;1.17;0.90;;;;;;;;;;5039840;28;20017;-79
2021/05/23 03:57:59;;;;;;;1.92;0.90;;;;;;;;;;5042059;28;20107;-79
2021/05/23 04:00:26;;;;;;;2.17;0.80;;;;;;;;;;5038481;28;20032;-78
2021/05/23 04:02:53;;;;;;;0.50;0.50;;;;;;;;;;5039882;28;20030;-79
2021/05/23 04:05:20;;;;;;;1.77;1.25;;;;;;;;;;5043144;28;20029;-78
2021/05/23 04:07:46;;;;;;;1.48;0.40;;;;;;;;;;5055341;28;20191;-80
2021/05/23 04:10:15;;;;;;;1.55;0.40;;;;;;;;;;5060126;28;20029;-79
2021/05/23 04:12:45;;;;;;;2.65;0.40;;;;;;;;;;5042569;28;20024;-79
2021/05/23 04:15:21;;;;;;;2.17;0.38;;;;;;;;;;5038540;28;20385;-78
2021/05/23 04:17:47;;;;;;;0.60;0.52;;;;;;;;;;5047678;28;20025;-79
2021/05/23 04:20:14;;;;;;;0.88;0.20;;;;;;;;;;5058158;28;20401;-78
2021/05/23 04:22:41;;;;;;;0.95;0.38;;;;;;;;;;5055699;28;20512;-80
2021/05/23 04:25:09;;;;;;;2.15;0.30;;;;;;;;;;5037120;28;20032;-80
2021/05/23 04:27:36;;;;;;;0.95;0.20;;;;;;;;;;5037074;28;20033;-78
2021/05/23 04:30:02;;;;;;;1.67;0.20;;;;;;;;;;5038308;28;20071;-79
2021/05/23 04:32:28;;;;;;;0.40;0.30;;;;;;;;;;5038235;28;20029;-78
2021/05/23 04:34:54;;;;;;;0.47;0.20;;;;;;;;;;5038557;28;20043;-80
2021/05/23 04:37:20;;;;;;;0.75;0.30;;;;;;;;;;5040181;28;20037;-80
2021/05/23 04:39:46;;;;;;;0.25;0.15;;;;;;;;;;5038151;28;20070;-78
2021/05/23 04:42:13;;;;;;;0.70;0.30;;;;;;;;;;5036354;28;20521;-79
2021/05/23 04:44:39;;;;;;;0.90;0.20;;;;;;;;;;5037342;28;20043;-79
2021/05/23 04:47:05;;;;;;;0.20;0.20;;;;;;;;;;5051921;28;20048;-77
2021/05/23 04:49:31;;;;;;;0.20;0.20;;;;;;;;;;5058134;28;20096;-79
2021/05/23 04:51:57;;;;;;;0.63;0.30;;;;;;;;;;5057726;28;20048;-77
2021/05/23 04:54:23;;;;;;;0.32;0.30;;;;;;;;;;5049011;28;20082;-77
2021/05/23 04:56:49;;;;;;;0.63;0.35;;;;;;;;;;5041627;28;20026;-78
2021/05/23 04:59:16;;;;;;;0.60;0.30;;;;;;;;;;5040480;28;20277;-78
2021/05/23 05:01:42;;;;;;;0.40;0.20;;;;;;;;;;5038440;28;20021;-77
2021/05/23 05:04:08;;;;;;;1.23;0.57;;;;;;;;;;5049278;28;20040;-77
2021/05/23 05:06:34;;;;;;;1.17;0.20;;;;;;;;;;5052413;28;20067;-78
2021/05/23 05:09:00;;;;;;;0.50;0.20;;;;;;;;;;5053119;28;20028;-78
2021/05/23 05:11:26;;;;;;;0.85;0.20;;;;;;;;;;5054636;28;20026;-77
2021/05/23 05:13:52;;;;;;;0.22;0.10;;;;;;;;;;5054256;28;20021;-77
2021/05/23 05:16:18;;;;;;;0.73;0.20;;;;;;;;;;5059693;28;20044;-78
2021/05/23 05:18:44;;;;;;;0.30;0.10;;;;;;;;;;5058775;28;20025;-79
2021/05/23 05:21:10;;;;;;;0.45;0.17;;;;;;;;;;5064196;28;20029;-78
2021/05/23 05:23:36;;;;;;;0.10;0.10;;;;;;;;;;5055948;28;20037;-79
2021/05/23 05:26:03;;;;;;;0.43;0.22;;;;;;;;;;5042432;28;20035;-79
2021/05/23 05:28:29;;;;;;;0.35;0.15;;;;;;;;;;5038982;28;20026;-79
2021/05/23 05:30:56;;;;;;;0.40;0.10;;;;;;;;;;5033288;28;20076;-78
2021/05/23 05:33:22;;;;;;;0.22;0.10;;;;;;;;;;5027773;28;20034;-78
2021/05/23 05:35:48;;;;;;;1.00;0.20;;;;;;;;;;5025663;28;20029;-79
2021/05/23 05:38:14;;;;;;;0.28;0.17;;;;;;;;;;5027849;28;20111;-79
2021/05/23 05:40:40;;;;;;;0.30;0.20;;;;;;;;;;5027314;28;20049;-80
2021/05/23 05:43:07;;;;;;;0.10;0.10;;;;;;;;;;5028608;28;20028;-78
2021/05/23 05:45:33;;;;;;;1.85;0.30;;;;;;;;;;5027853;28;20056;-79
2021/05/23 05:47:59;;;;;;;0.65;0.10;;;;;;;;;;5031575;28;20021;-80
2021/05/23 05:50:25;;;;;;;0.28;0.10;;;;;;;;;;5032134;28;20490;-79
2021/05/23 05:52:51;;;;;;;0.47;0.10;;;;;;;;;;5025940;28;20053;-79
2021/05/23 05:55:17;;;;;;;0.30;0.20;;;;;;;;;;5029502;28;20029;-79
2021/05/23 05:57:43;;;;;;;0.10;0.10;;;;;;;;;;5035276;28;20029;-78
2021/05/23 06:00:10;;;;;;;0.10;0.10;;;;;;;;;;5029283;28;20064;-79
2021/05/23 06:02:36;;;;;;;0.10;0.10;;;;;;;;;;5021842;28;20040;-78
2021/05/23 06:05:02;;;;;;;0.10;0.10;;;;;;;;;;5018195;28;20094;-79
2021/05/23 06:07:28;;;;;;;0.10;0.10;;;;;;;;;;5030546;28;20513;-79
2021/05/23 06:09:54;;;;;;;0.10;0.10;;;;;;;;;;5063038;28;20065;-78
2021/05/23 06:12:20;;;;;;;0.10;0.10;;;;;;;;;;5052794;28;20029;-78
2021/05/23 06:14:46;;;;;;;0.10;0.10;;;;;;;;;;5046069;28;20022;-76
2021/05/23 06:17:12;;;;;;;0.10;0.10;;;;;;;;;;5047408;28;20075;-77
2021/05/23 06:19:39;;;;;;;0.75;0.20;;;;;;;;;;5044928;28;20022;-77
2021/05/23 06:22:05;;;;;;;0.10;0.10;;;;;;;;;;5042373;28;20362;-77
2021/05/23 06:24:31;;;;;;;0.10;0.10;;;;;;;;;;5040063;28;20100;-79
2021/05/23 06:26:57;;;;;;;0.25;0.15;;;;;;;;;;5041477;28;20030;-79
2021/05/23 06:29:23;;;;;;;0.10;0.10;;;;;;;;;;5046473;28;20022;-77
2021/05/23 06:31:49;;;;;;;1.15;0.10;;;;;;;;;;5071172;28;20029;-78
2021/05/23 06:34:15;;;;;;;0.10;0.03;;;;;;;;;;5070570;28;20044;-78
2021/05/23 06:36:41;;;;;;;0.20;0.20;;;;;;;;;;5070209;28;20055;-77
2021/05/23 06:39:08;;;;;;;0.10;0.10;;;;;;;;;;5065126;28;20135;-77
2021/05/23 06:41:35;;;;;;;0.20;0.10;;;;;;;;;;5043526;28;20018;-79
2021/05/23 06:44:01;;;;;;;0.15;0.10;;;;;;;;;;5034338;28;20021;-78
2021/05/23 06:46:27;;;;;;;0.03;0.00;;;;;;;;;;5033304;28;20024;-78
2021/05/23 06:48:53;;;;;;;0.20;0.20;;;;;;;;;;5033828;28;20471;-79
2021/05/23 06:51:19;;;;;;;0.50;0.10;;;;;;;;;;5024900;28;20420;-78
2021/05/23 06:53:47;;;;;;;0.60;0.13;;;;;;;;;;5022834;28;20029;-77
2021/05/23 06:56:13;;;;;;;0.20;0.10;;;;;;;;;;5036159;28;20045;-78
2021/05/23 06:58:39;;;;;;;0.10;0.10;;;;;;;;;;5051985;28;20044;-77
2021/05/23 07:01:06;;;;;;;0.63;0.20;;;;;;;;;;5039908;28;20525;-78
2021/05/23 07:03:32;;;;;;;0.08;0.08;;;;;;;;;;5042080;28;20025;-81
2021/05/23 07:05:58;;;;;;;0.40;0.08;;;;;;;;;;5036642;28;20053;-82
2021/05/23 07:08:24;;;;;;;0.20;0.20;;;;;;;;;;5039809;28;20104;-78
2021/05/23 07:10:50;;;;;;;0.13;0.10;;;;;;;;;;5040810;28;20026;-78
2021/05/23 07:13:16;;;;;;;0.30;0.20;;;;;;;;;;5039791;28;20474;-78
2021/05/23 07:15:42;;;;;;;0.10;0.10;;;;;;;;;;5038060;28;20025;-81
2021/05/23 07:18:09;;;;;;;0.30;0.10;;;;;;;;;;5036015;28;20026;-80
2021/05/23 07:20:35;;;;;;;0.20;0.20;;;;;;;;;;5039327;28;20363;-78
2021/05/23 07:23:01;;;;;;;0.52;0.10;;;;;;;;;;5041601;28;20022;-79
2021/05/23 07:25:27;;;;;;;0.43;0.10;;;;;;;;;;5032795;28;20021;-78
2021/05/23 07:27:53;;;;;;;0.20;0.20;;;;;;;;;;5036185;28;20032;-79
2021/05/23 07:30:19;;;;;;;2.38;0.20;;;;;;;;;;5035477;28;20026;-78
2021/05/23 07:32:45;;;;;;;3.60;0.20;;;;;;;;;;5038275;28;20022;-79
2021/05/23 07:35:12;;;;;;;0.47;0.30;;;;;;;;;;5063787;22;20037;-81
2021/05/23 07:37:38;;;;;;;0.17;0.17;;;;;;;;;;5046908;28;20029;-79
2021/05/23 07:40:05;;;;;;;0.20;0.20;;;;;;;;;;5056411;28;20025;-80
2021/05/23 07:42:31;;;;;;;0.30;0.10;;;;;;;;;;5056263;28;20448;-79
2021/05/23 07:44:58;;;;;;;0.17;0.10;;;;;;;;;;5050387;28;20033;-81
2021/05/23 07:47:24;;;;;;;0.10;0.10;;;;;;;;;;5057501;28;20029;-79
2021/05/23 07:49:50;;;;;;;0.17;0.10;;;;;;;;;;5047151;28;20029;-82
2021/05/23 07:52:16;;;;;;;0.20;0.13;;;;;;;;;;5036255;28;20025;-81
2021/05/23 07:54:42;;;;;;;0.40;0.30;;;;;;;;;;5023259;28;20040;-80
2021/05/23 07:57:10;;;;;;;0.65;0.20;;;;;;;;;;5026584;28;20104;-80
2021/05/23 07:59:36;;;;;;;0.22;0.15;;;;;;;;;;5036470;28;20022;-80
2021/05/23 08:02:03;;;;;;;0.10;0.10;;;;;;;;;;5038959;28;20029;-83
2021/05/23 08:04:29;;;;;;;0.10;0.10;;;;;;;;;;5030559;28;20117;-81
2021/05/23 08:06:55;;;;;;;0.20;0.20;;;;;;;;;;5035526;28;20025;-82
2021/05/23 08:09:21;;;;;;;0.10;0.10;;;;;;;;;;5017416;28;20528;-88
2021/05/23 08:11:48;;;;;;;0.30;0.30;;;;;;;;;;5035710;28;20504;-79
2021/05/23 08:14:15;;;;;;;0.30;0.30;;;;;;;;;;5036766;28;20052;-79
2021/05/23 08:16:43;;;;;;;0.38;0.38;;;;;;;;;;5033084;28;20168;-78
2021/05/23 08:19:09;;;;;;;0.85;0.47;;;;;;;;;;5035792;28;20029;-78
2021/05/23 08:21:35;;;;;;;0.10;0.10;;;;;;;;;;5035843;28;20049;-78
2021/05/23 08:24:02;;;;;;;0.60;0.30;;;;;;;;;;5029737;28;20101;-78
2021/05/23 08:26:28;;;;;;;0.20;0.20;;;;;;;;;;5052938;28;20116;-79
2021/05/23 08:28:54;;;;;;;0.30;0.30;;;;;;;;;;5058473;28;20028;-79
2021/05/23 08:31:20;;;;;;;0.77;0.30;;;;;;;;;;5071651;28;20036;-78
2021/05/23 08:33:46;;;;;;;0.85;0.20;;;;;;;;;;5056535;28;20028;-79
2021/05/23 08:36:12;;;;;;;0.90;0.45;;;;;;;;;;5044040;28;20037;-78
2021/05/23 08:38:38;;;;;;;0.85;0.55;;;;;;;;;;5037442;28;20060;-79
2021/05/23 08:41:05;;;;;;;0.35;0.10;;;;;;;;;;5035143;28;20087;-77
2021/05/23 08:43:31;;;;;;;0.60;0.30;;;;;;;;;;5017467;28;20026;-80
2021/05/23 08:45:59;;;;;;;0.47;0.20;;;;;;;;;;5014210;28;20022;-82
2021/05/23 08:48:25;;;;;;;0.40;0.20;;;;;;;;;;5013641;28;20060;-78
2021/05/23 08:50:51;;;;;;;0.38;0.20;;;;;;;;;;5014284;28;20455;-81
2021/05/23 08:53:18;;;;;;;0.57;0.40;;;;;;;;;;5015424;28;20022;-80
2021/05/23 08:55:45;;;;;;;1.13;0.63;;;;;;;;;;5041311;28;20021;-81
2021/05/23 08:58:11;;;;;;;0.52;0.20;;;;;;;;;;5052179;28;20100;-79
2021/05/23 09:00:38;;;;;;;0.77;0.40;;;;;;;;;;5029913;28;20037;-78
2021/05/23 09:03:08;;;;;;;1.58;0.22;;;;;;;;;;5017955;28;20037;-80
2021/05/23 09:05:36;;;;;;;0.20;0.20;;;;;;;;;;5021754;28;20486;-77
2021/05/23 09:08:03;;;;;;;1.20;0.35;;;;;;;;;;5031256;28;20092;-77
2021/05/23 09:10:33;;;;;;;1.05;0.40;;;;;;;;;;5032572;28;20060;-79
2021/05/23 09:13:00;;;;;;;0.20;0.20;;;;;;;;;;5032904;28;20018;-78
2021/05/23 09:15:27;;;;;;;1.13;0.35;;;;;;;;;;5034006;28;20036;-77
2021/05/23 09:18:02;;;;;;;1.70;0.38;;;;;;;;;;5036154;28;20458;-79
2021/05/23 09:20:28;;;;;;;0.85;0.40;;;;;;;;;;5024034;28;20068;-77
2021/05/23 09:22:55;;;;;;;0.30;0.17;;;;;;;;;;5021178;28;20040;-77
2021/05/23 09:25:28;;;;;;;1.75;0.40;;;;;;;;;;5029149;28;20030;-77
2021/05/23 09:27:54;;;;;;;0.93;0.50;;;;;;;;;;5050685;28;20036;-79
2021/05/23 09:30:23;;;;;;;1.73;0.30;;;;;;;;;;5056952;28;20094;-77
2021/05/23 09:32:51;;;;;;;0.95;0.50;;;;;;;;;;5049540;28;20041;-78
2021/05/23 09:35:17;;;;;;;0.93;0.43;;;;;;;;;;5036744;28;20030;-78
2021/05/23 09:37:44;;;;;;;1.80;0.50;;;;;;;;;;5036797;28;20179;-77
2021/05/23 09:40:16;;;;;;;1.08;0.52;;;;;;;;;;5037459;28;20030;-78
2021/05/23 09:42:42;;;;;;;;;;;;;;;;;;5035627;28;20040;-78
2021/05/23 09:45:08;;;;;;;0.93;0.30;;;;;;;;;;5036092;28;19905;-78
2021/05/23 09:47:34;;;;;;;0.38;0.20;;;;;;;;;;5035950;28;20073;-78
2021/05/23 09:50:02;;;;;;;0.73;0.43;;;;;;;;;;5035135;28;20167;-78
2021/05/23 09:52:35;;;;;;;1.05;0.30;;;;;;;;;;5019227;28;20029;-79
2021/05/23 09:55:01;;;;;;;0.57;0.57;;;;;;;;;;5036513;28;20021;-79
2021/05/23 09:57:28;;;;;;;1.08;0.43;;;;;;;;;;5045762;28;20021;-78
2021/05/23 10:00:01;;;;;;;0.35;0.20;;;;;;;;;;5035891;28;20052;-78
2021/05/23 10:02:28;;;;;;;1.02;0.40;;;;;;;;;;5029019;28;20068;-79
2021/05/23 10:05:01;;;;;;;0.20;0.20;;;;;;;;;;5045332;28;20025;-78
2021/05/23 10:07:32;;;;;;;1.10;0.30;;;;;;;;;;5042168;28;20025;-78
2021/05/23 10:09:58;;;;;;;0.73;0.40;;;;;;;;;;5054405;28;20461;-78
2021/05/23 10:12:24;;;;;;;0.20;0.20;;;;;;;;;;5022688;28;20025;-78
2021/05/23 10:14:50;;;;;;;1.20;0.75;;;;;;;;;;5036177;28;20026;-77
2021/05/23 10:17:16;;;;;;;2.20;0.77;;;;;;;;;;5044631;28;20025;-79
2021/05/23 10:19:42;;;;;;;0.30;0.30;;;;;;;;;;5052162;28;20045;-78
2021/05/23 10:22:09;;;;;;;0.28;0.28;;;;;;;;;;5051950;28;20031;-79
2021/05/23 10:24:38;;;;;;;2.70;0.70;;;;;;;;;;5054205;28;20032;-78
2021/05/23 10:27:09;;;;;;;2.00;0.50;;;;;;;;;;5049602;28;20029;-78
2021/05/23 10:29:37;;;;;;;0.30;0.25;;;;;;;;;;5042478;28;20025;-79
2021/05/23 10:32:07;;;;;;;0.68;0.20;;;;;;;;;;5018315;28;20026;-79
2021/05/23 10:34:37;;;;;;;0.30;0.30;;;;;;;;;;5017638;28;20038;-77
2021/05/23 10:37:03;;;;;;;0.43;0.40;;;;;;;;;;5019296;28;20022;-77
2021/05/23 10:39:41;;;;;;;0.70;0.40;;;;;;;;;;5029333;28;20056;-78
2021/05/23 10:42:09;;;;;;;1.20;0.40;;;;;;;;;;5034968;28;20021;-78
2021/05/23 10:44:43;;;;;;;0.28;0.20;;;;;;;;;;5017594;28;20092;-78
2021/05/23 10:47:09;;;;;;;0.32;0.32;;;;;;;;;;5018294;28;20116;-79
2021/05/23 10:49:36;;;;;;;1.20;0.40;;;;;;;;;;5016088;28;20116;-79
2021/05/23 10:52:03;;;;;;;0.63;0.30;;;;;;;;;;5016279;28;20026;-78
2021/05/23 10:54:29;;;;;;;0.82;0.38;;;;;;;;;;5034005;28;20013;-79
2021/05/23 10:56:59;;;;;;;0.85;0.32;;;;;;;;;;5046564;28;20021;-78
2021/05/23 10:59:31;;;;;;;0.55;0.20;;;;;;;;;;5056332;28;20096;-79
2021/05/23 11:01:58;;;;;;;0.80;0.32;;;;;;;;;;5055632;28;20478;-78
2021/05/23 11:04:24;;;;;;;2.00;0.82;;;;;;;;;;5038599;28;20034;-78
2021/05/23 11:06:51;;;;;;;0.95;0.40;;;;;;;;;;5036321;28;20029;-79
2021/05/23 11:09:20;;;;;;;0.40;0.25;;;;;;;;;;5035198;28;20049;-79
2021/05/23 11:11:46;;;;;;;0.82;0.50;;;;;;;;;;5036764;28;20071;-78
2021/05/23 11:14:21;;;;;;;2.15;0.60;;;;;;;;;;5037066;28;20089;-78
2021/05/23 11:16:48;;;;;;;2.00;0.52;;;;;;;;;;5035184;28;20017;-78
2021/05/23 11:19:15;;;;;;;0.35;0.25;;;;;;;;;;5036368;28;20098;-78
2021/05/23 11:21:42;;;;;;;0.50;0.40;;;;;;;;;;5026730;28;20389;-77
2021/05/23 11:24:09;;;;;;;1.02;0.47;;;;;;;;;;5030587;28;20025;-79
2021/05/23 11:26:35;;;;;;;0.65;0.40;;;;;;;;;;5044677;28;20017;-78
2021/05/23 11:29:02;;;;;;;0.63;0.40;;;;;;;;;;5035066;28;20485;-78
2021/05/23 11:31:32;;;;;;;0.50;0.50;;;;;;;;;;5026983;28;20551;-78
2021/05/23 11:33:59;;;;;;;0.88;0.40;;;;;;;;;;5026845;28;20386;-78
2021/05/23 11:36:26;;;;;;;2.78;0.85;;;;;;;;;;5034571;28;20036;-79
2021/05/23 11:38:59;;;;;;;0.43;0.30;;;;;;;;;;5021734;28;20037;-79
2021/05/23 11:41:29;;;;;;;1.85;0.50;;;;;;;;;;5021623;28;20025;-79
2021/05/23 11:43:56;;;;;;;0.98;0.65;;;;;;;;;;5034658;28;20045;-79
2021/05/23 11:46:23;;;;;;;0.73;0.40;;;;;;;;;;5037215;28;20018;-78
2021/05/23 11:48:49;;;;;;;0.30;0.22;;;;;;;;;;5036221;28;20059;-80
2021/05/23 11:51:19;;;;;;;0.40;0.40;;;;;;;;;;5016937;28;20133;-78
2021/05/23 11:53:46;;;;;;;0.30;0.30;;;;;;;;;;5015883;28;20037;-78
2021/05/23 11:56:20;;;;;;;0.82;0.50;;;;;;;;;;5023379;28;20407;-79
2021/05/23 11:58:47;;;;;;;0.20;0.20;;;;;;;;;;5017273;28;20037;-77
2021/05/23 12:01:13;;;;;;;1.10;0.32;;;;;;;;;;5015807;28;20034;-78
2021/05/23 12:03:39;;;;;;;0.40;0.40;;;;;;;;;;5019100;28;20028;-78
2021/05/23 12:06:14;;;;;;;3.70;0.60;;;;;;;;;;5034045;28;20327;-78
2021/05/23 12:08:40;;;;;;;0.43;0.30;;;;;;;;;;5023184;28;20033;-78
2021/05/23 12:11:09;;;;;;;0.40;0.40;;;;;;;;;;5021196;28;20108;-79
2021/05/23 12:13:39;;;;;;;0.43;0.20;;;;;;;;;;5034093;28;20328;-79
2021/05/23 12:16:06;;;;;;;2.17;0.30;;;;;;;;;;5029243;28;20029;-79
2021/05/23 12:18:46;;;;;;;1.38;0.50;;;;;;;;;;5017382;28;20026;-79
2021/05/23 12:21:17;;;;;;;0.50;0.50;;;;;;;;;;5031030;28;20054;-80
2021/05/23 12:23:44;;;;;;;1.52;0.35;;;;;;;;;;5017262;28;20026;-80
2021/05/23 12:26:14;;;;;;;2.00;0.55;;;;;;;;;;5033825;28;20087;-79
2021/05/23 12:28:50;;;;;;;0.90;0.30;;;;;;;;;;5034449;28;20026;-79
2021/05/23 12:31:17;;;;;;;0.40;0.20;;;;;;;;;;5035735;28;20083;-78
2021/05/23 12:33:52;;;;;;;1.15;0.43;;;;;;;;;;5016081;28;20026;-78
2021/05/23 12:36:19;;;;;;;0.52;0.28;;;;;;;;;;5018317;28;20032;-79
2021/05/23 12:38:58;;;;;;;0.88;0.30;;;;;;;;;;5031756;28;20398;-78
2021/05/23 12:41:38;;;;;;;0.65;0.30;;;;;;;;;;5018400;28;20077;-77
2021/05/23 12:44:16;;;;;;;0.25;0.20;;;;;;;;;;5016441;28;20041;-77
2021/05/23 12:46:42;;;;;;;0.50;0.30;;;;;;;;;;5015422;28;20502;-77
2021/05/23 12:49:14;;;;;;;0.70;0.40;;;;;;;;;;5020114;28;20029;-78
2021/05/23 12:51:40;;;;;;;;;;;;;;;;;;5031353;28;20048;-77
2021/05/23 12:54:06;;;;;;;0.30;0.30;;;;;;;;;;5018473;28;19906;-78
2021/05/23 12:56:35;;;;;;;0.70;0.38;;;;;;;;;;5036060;28;20023;-78
2021/05/23 12:59:03;;;;;;;0.73;0.38;;;;;;;;;;5043444;28;20108;-77
2021/05/23 13:01:35;;;;;;;1.10;0.40;;;;;;;;;;5016725;28;20064;-77
2021/05/23 13:04:02;;;;;;;0.80;0.50;;;;;;;;;;5015244;28;20066;-78
2021/05/23 13:06:52;;;;;;;0.30;0.30;;;;;;;;;;5032767;28;20076;-78
2021/05/23 13:09:19;;;;;;;1.38;0.45;;;;;;;;;;5027517;28;20018;-78
2021/05/23 13:11:52;;;;;;;0.88;0.35;;;;;;;;;;5014939;28;20033;-78
2021/05/23 13:14:19;;;;;;;1.73;0.47;;;;;;;;;;5016635;28;20024;-78
2021/05/23 13:16:45;;;;;;;0.50;0.25;;;;;;;;;;5034324;28;20167;-78
2021/05/23 13:19:12;;;;;;;0.88;0.30;;;;;;;;;;5032068;28;20510;-78
2021/05/23 13:21:38;;;;;;;0.35;0.30;;;;;;;;;;5017476;28;20041;-78
2021/05/23 13:24:04;;;;;;;1.27;0.20;;;;;;;;;;5021507;28;20030;-78
2021/05/23 13:26:30;;;;;;;0.20;0.20;;;;;;;;;;5044891;28;20025;-78
2021/05/23 13:28:56;;;;;;;2.90;0.40;;;;;;;;;;5027823;28;20083;-79
2021/05/23 13:31:22;;;;;;;0.47;0.22;;;;;;;;;;5036285;28;20018;-78
2021/05/23 13:33:48;;;;;;;1.10;0.30;;;;;;;;;;5039460;28;20021;-78
2021/05/23 13:36:15;;;;;;;1.08;0.40;;;;;;;;;;5047513;28;20029;-78
2021/05/23 13:38:42;;;;;;;0.65;0.32;;;;;;;;;;5041405;28;20049;-78
2021/05/23 13:41:08;;;;;;;1.15;0.40;;;;;;;;;;5047002;28;20076;-77
2021/05/23 13:43:35;;;;;;;0.35;0.22;;;;;;;;;;5062380;28;20069;-78
2021/05/23 13:46:03;;;;;;;1.23;0.35;;;;;;;;;;5050941;28;20029;-78
2021/05/23 13:48:29;;;;;;;0.17;0.17;;;;;;;;;;5052256;28;20030;-78
2021/05/23 13:50:57;;;;;;;0.60;0.20;;;;;;;;;;5045950;28;20026;-78
2021/05/23 13:53:23;;;;;;;1.25;0.40;;;;;;;;;;5015650;28;20034;-79
2021/05/23 13:55:50;;;;;;;0.65;0.30;;;;;;;;;;5054462;28;20117;-79
2021/05/23 13:58:16;;;;;;;0.50;0.20;;;;;;;;;;5054268;28;20343;-78
2021/05/23 14:00:42;;;;;;;0.98;0.40;;;;;;;;;;5053582;28;20063;-78
2021/05/23 14:03:18;;;;;;;0.32;0.32;;;;;;;;;;5051074;28;20030;-76
2021/05/23 14:05:45;;;;;;;0.30;0.30;;;;;;;;;;5056914;28;20152;-77
2021/05/23 14:08:12;;;;;;;0.43;0.30;;;;;;;;;;5051829;28;20048;-77
2021/05/23 14:10:38;;;;;;;0.85;0.65;;;;;;;;;;5038274;28;20046;-78
2021/05/23 14:13:04;;;;;;;1.75;0.35;;;;;;;;;;5049257;28;20040;-78
2021/05/23 14:15:31;;;;;;;0.50;0.30;;;;;;;;;;5048987;28;20044;-78
2021/05/23 14:17:57;;;;;;;0.82;0.38;;;;;;;;;;5029435;28;20026;-77
2021/05/23 14:20:25;;;;;;;1.17;0.20;;;;;;;;;;5042299;28;20037;-77
2021/05/23 14:22:52;;;;;;;0.82;0.30;;;;;;;;;;5046963;28;20034;-78
2021/05/23 14:25:18;;;;;;;0.55;0.38;;;;;;;;;;5035850;28;20033;-78
2021/05/23 14:27:44;;;;;;;1.17;0.40;;;;;;;;;;5056907;28;20059;-78
2021/05/23 14:30:11;;;;;;;0.20;0.20;;;;;;;;;;5049074;28;20021;-78
2021/05/23 14:32:37;;;;;;;0.85;0.30;;;;;;;;;;5035274;28;20018;-78
2021/05/23 14:35:04;;;;;;;0.30;0.20;;;;;;;;;;5029267;28;20033;-78
2021/05/23 14:37:30;;;;;;;3.25;0.40;;;;;;;;;;5027470;28;20036;-77
2021/05/23 14:39:56;;;;;;;0.70;0.40;;;;;;;;;;5045447;28;20044;-77
2021/05/23 14:42:22;;;;;;;1.05;0.40;;;;;;;;;;5055627;28;20117;-78
2021/05/23 14:44:48;;;;;;;0.95;0.45;;;;;;;;;;5038818;28;20034;-79